Time;durP1;ratioP1;P1;durP2;ratioP2;P2;SDS_P1;SDS_P2;PMS_P1;PMS_P2;Temp;Humidity;BMP_temperature;BMP_pressure;BME280_temperature;BME280_humidity;BME280_pressure;Samples;Min_cycle;Max_cycle;Signal;HPM_P1;HPM_P2
2021/07/27 00:05:10;;;;;;;56.07;51.87;;;;;;;20.20;100.00;100932.73;1921071;73;31125;-76
2021/07/27 00:10:37;;;;;;;52.60;48.17;;;;;;;20.06;100.00;100933.66;1972073;72;31033;-75
2021/07/27 00:16:06;;;;;;;52.97;48.87;;;;;;;19.94;100.00;100940.88;1971956;72;31218;-79
2021/07/27 00:21:33;;;;;;;50.83;46.83;;;;;;;19.92;100.00;100939.58;1972137;73;30963;-78
2021/07/27 00:27:17;;;;;;;50.10;46.20;;;;;;;20.01;100.00;100931.87;1945778;74;31051;-81
2021/07/27 00:32:51;;;;;;;48.47;44.43;;;;;;;20.06;100.00;100930.25;1972170;72;31417;-79
2021/07/27 00:38:36;;;;;;;49.80;45.80;;;;;;;20.19;100.00;100925.47;1945930;73;31111;-80
2021/07/27 00:44:01;;;;;;;49.03;45.23;;;;;;;20.16;100.00;100924.16;1972223;72;31521;-75
2021/07/27 00:49:28;;;;;;;47.33;43.27;;;;;;;20.18;100.00;100926.64;1972092;73;31519;-78
2021/07/27 00:54:52;;;;;;;48.33;44.63;;;;;;;19.99;100.00;100921.51;1972177;72;31085;-75
2021/07/27 01:00:19;;;;;;;48.97;45.17;;;;;;;20.07;100.00;100936.72;1971975;73;30964;-75
2021/07/27 01:05:47;;;;;;;48.93;44.80;;;;;;;19.96;100.00;100927.27;1972014;72;31088;-78
2021/07/27 01:11:24;;;;;;;47.27;43.47;;;;;;;19.98;100.00;100926.32;1972279;72;31446;-82
2021/07/27 01:16:50;;;;;;;49.23;45.07;;;;;;;20.09;100.00;100926.73;1971970;72;31144;-83
2021/07/27 01:39:27;;;;;;;50.10;46.10;;;;;;;19.88;100.00;100911.27;1972001;72;30981;-74
2021/07/27 01:45:19;;;;;;;51.03;46.70;;;;;;;19.82;100.00;100920.27;1947600;74;31152;-84
2021/07/27 01:50:44;;;;;;;52.53;48.33;;;;;;;19.81;100.00;100914.41;1972167;73;31577;-75
2021/07/27 01:56:19;;;;;;;50.17;45.87;;;;;;;19.77;100.00;100912.02;1971911;73;30965;-78
2021/07/27 02:01:52;;;;;;;53.30;49.10;;;;;;;19.69;100.00;100911.51;1972233;72;30965;-80
2021/07/27 02:07:17;;;;;;;52.90;48.80;;;;;;;19.59;100.00;100904.33;1972036;72;30951;-82
2021/07/27 02:12:51;;;;;;;55.03;51.13;;;;;;;19.45;100.00;100906.01;1971895;72;30963;-78
2021/07/27 02:18:20;;;;;;;56.73;52.43;;;;;;;19.46;100.00;100908.24;1972081;72;33408;-79
2021/07/27 02:23:46;;;;;;;58.00;53.60;;;;;;;19.39;100.00;100922.00;1972088;72;31523;-78
2021/07/27 02:29:11;;;;;;;54.77;50.47;;;;;;;19.43;100.00;100945.53;1972029;72;30946;-82
2021/07/27 02:34:38;;;;;;;55.30;50.90;;;;;;;19.53;100.00;100967.67;1972169;73;31044;-78
2021/07/27 02:40:24;;;;;;;54.60;50.40;;;;;;;19.58;100.00;100977.34;1921208;74;31033;-81
2021/07/27 02:46:09;;;;;;;56.40;52.30;;;;;;;19.63;100.00;100970.09;1947905;74;31106;-85
2021/07/27 02:51:33;;;;;;;55.27;50.97;;;;;;;19.62;100.00;100964.22;1971948;72;31060;-84
2021/07/27 02:56:59;;;;;;;54.70;50.53;;;;;;;19.67;100.00;100964.02;1972039;72;31040;-75
2021/07/27 03:02:24;;;;;;;54.47;50.07;;;;;;;19.66;100.00;100958.70;1971944;73;31030;-84
2021/07/27 03:07:52;;;;;;;53.27;48.93;;;;;;;19.68;100.00;100965.64;1971841;73;30956;-80
2021/07/27 03:13:36;;;;;;;45.30;41.90;;;;;;;19.52;100.00;100953.34;1939591;73;31118;-84
2021/07/27 03:19:21;;;;;;;44.93;41.50;;;;;;;19.32;100.00;100946.50;1947654;74;31622;-81
2021/07/27 03:24:48;;;;;;;44.23;40.93;;;;;;;19.00;100.00;100942.95;1972095;72;31468;-79
2021/07/27 03:30:19;;;;;;;43.87;40.67;;;;;;;19.05;100.00;100930.92;1972019;72;31025;-83
2021/07/27 03:35:44;;;;;;;44.20;40.87;;;;;;;18.84;100.00;100927.81;1972133;73;30998;-75
2021/07/27 03:41:12;;;;;;;41.80;38.70;;;;;;;18.90;100.00;100917.45;1971896;73;30973;-75
2021/07/27 03:46:37;;;;;;;41.83;38.83;;;;;;;18.83;100.00;100917.13;1972139;73;30963;-74
2021/07/27 03:52:05;;;;;;;42.07;39.17;;;;;;;18.73;100.00;100905.45;1971982;72;30970;-80
2021/07/27 03:57:32;;;;;;;42.10;39.23;;;;;;;18.65;100.00;100903.73;1971878;72;30966;-81
2021/07/27 04:02:58;;;;;;;40.17;37.57;;;;;;;18.75;100.00;100891.27;1937336;73;31036;-78
2021/07/27 04:08:25;;;;;;;40.27;37.67;;;;;;;18.84;100.00;100882.20;1972011;72;30960;-78
2021/07/27 04:14:13;;;;;;;39.50;37.10;;;;;;;18.84;100.00;100875.16;1946009;73;31195;-81
2021/07/27 04:19:37;;;;;;;39.87;37.47;;;;;;;18.85;100.00;100872.60;1972162;73;30956;-75
2021/07/27 04:25:01;;;;;;;39.10;36.80;;;;;;;18.78;100.00;100872.90;1972052;73;30944;-84
2021/07/27 04:30:27;;;;;;;39.83;37.53;;;;;;;18.75;100.00;100878.61;1971979;72;31018;-85
2021/07/27 04:35:51;;;;;;;39.40;37.00;;;;;;;18.63;100.00;100892.00;1972168;72;33456;-75
2021/07/27 04:41:38;;;;;;;40.40;37.87;;;;;;;18.60;100.00;100884.25;1947583;74;31115;-82
2021/07/27 04:47:03;;;;;;;37.57;35.07;;;;;;;18.45;100.00;100887.58;1972143;73;31569;-84
2021/07/27 04:52:28;;;;;;;40.63;37.83;;;;;;;18.39;100.00;100880.50;1972009;72;31029;-76
2021/07/27 04:58:14;;;;;;;40.60;37.80;;;;;;;18.25;100.00;100882.70;1947580;74;31652;-81
2021/07/27 05:03:39;;;;;;;40.83;37.93;;;;;;;18.22;100.00;100893.22;1971922;73;30979;-75
2021/07/27 05:09:25;;;;;;;40.17;37.37;;;;;;;18.28;100.00;100887.64;1947674;74;31036;-80
2021/07/27 05:14:57;;;;;;;41.37;38.37;;;;;;;17.97;100.00;100885.68;1972037;72;31065;-84
2021/07/27 05:20:42;;;;;;;40.53;37.73;;;;;;;18.28;100.00;100882.59;1945401;72;31313;-84
2021/07/27 05:26:11;;;;;;;39.17;36.33;;;;;;;18.39;100.00;100879.67;1972007;72;30941;-80
2021/07/27 05:31:40;;;;;;;39.37;36.57;;;;;;;18.35;100.00;100882.92;1971990;73;30987;-83
2021/07/27 05:37:25;;;;;;;38.87;36.17;;;;;;;18.43;100.00;100883.46;1920317;74;30983;-79
2021/07/27 05:43:09;;;;;;;38.60;35.87;;;;;;;18.46;100.00;100874.34;1947888;74;31557;-89
2021/07/27 05:48:42;;;;;;;39.73;37.13;;;;;;;18.86;100.00;100873.43;1972281;72;31048;-81
2021/07/27 05:54:07;;;;;;;40.20;37.60;;;;;;;19.04;100.00;100882.81;1971885;72;31433;-87
2021/07/27 05:59:32;;;;;;;41.43;38.63;;;;;;;18.90;100.00;100877.21;1971991;72;31030;-73
2021/07/27 06:04:56;;;;;;;38.60;36.00;;;;;;;18.80;100.00;100875.61;1972422;72;31503;-82
2021/07/27 06:10:21;;;;;;;39.30;36.67;;;;;;;19.17;100.00;100875.88;1972529;72;33427;-83
2021/07/27 06:15:46;;;;;;;39.33;36.73;;;;;;;19.45;100.00;100871.37;1972106;72;30940;-73
2021/07/27 06:21:11;;;;;;;38.17;35.57;;;;;;;19.50;100.00;100875.39;1972240;71;30946;-90
2021/07/27 06:26:37;;;;;;;38.00;35.50;;;;;;;18.95;100.00;100878.42;1972806;72;30952;-90
2021/07/27 06:32:02;;;;;;;38.50;35.90;;;;;;;19.00;100.00;100883.26;1972450;72;31041;-87
2021/07/27 06:37:27;;;;;;;37.13;34.60;;;;;;;18.90;100.00;100879.45;1971897;73;31031;-74
2021/07/27 06:42:51;;;;;;;38.57;35.90;;;;;;;18.89;100.00;100881.19;1972358;72;31438;-83
2021/07/27 06:48:16;;;;;;;37.83;35.10;;;;;;;19.02;100.00;100886.57;1972157;72;31420;-75
2021/07/27 06:53:43;;;;;;;38.20;35.60;;;;;;;19.11;100.00;100890.73;1971968;72;31016;-83
2021/07/27 06:59:08;;;;;;;38.70;36.10;;;;;;;18.99;100.00;100896.28;1972237;72;30945;-72
2021/07/27 07:04:32;;;;;;;37.53;35.03;;;;;;;19.00;100.00;100895.92;1972059;72;30944;-79
2021/07/27 07:09:57;;;;;;;37.40;34.90;;;;;;;19.10;100.00;100896.12;1972001;73;30938;-75
2021/07/27 07:15:21;;;;;;;36.97;34.47;;;;;;;19.06;100.00;100898.80;1971941;73;30950;-79
2021/07/27 07:20:47;;;;;;;36.43;33.93;;;;;;;19.20;100.00;100898.55;1972039;71;30957;-71
2021/07/27 07:26:11;;;;;;;37.10;34.50;;;;;;;19.17;100.00;100892.78;1972186;72;33373;-77
2021/07/27 07:31:36;;;;;;;37.93;35.30;;;;;;;19.14;100.00;100886.40;1971894;73;30938;-82
2021/07/27 07:37:03;;;;;;;36.40;33.70;;;;;;;19.16;100.00;100889.13;1971855;72;30940;-72
2021/07/27 07:42:27;;;;;;;37.53;34.83;;;;;;;19.06;100.00;100888.94;1971921;72;31070;-78
2021/07/27 07:47:51;;;;;;;35.87;33.37;;;;;;;19.44;100.00;100883.80;1972321;72;31476;-78
2021/07/27 07:53:17;;;;;;;36.90;34.13;;;;;;;19.66;100.00;100886.27;1972135;73;31568;-73
2021/07/27 07:58:42;;;;;;;35.37;32.97;;;;;;;19.59;100.00;100888.83;1971857;73;30930;-73
2021/07/27 08:04:06;;;;;;;37.30;34.70;;;;;;;19.51;100.00;100889.73;1971965;72;30949;-72
2021/07/27 08:09:31;;;;;;;37.50;34.90;;;;;;;19.77;100.00;100881.84;1972199;72;31512;-78
2021/07/27 08:14:55;;;;;;;36.13;33.63;;;;;;;20.24;100.00;100880.09;1972148;73;33577;-71
2021/07/27 08:20:22;;;;;;;35.20;32.90;;;;;;;20.24;100.00;100879.51;1971810;72;33355;-73
2021/07/27 08:25:47;;;;;;;34.00;31.70;;;;;;;20.51;100.00;100872.42;1972235;72;31433;-73
2021/07/27 08:31:12;;;;;;;33.97;31.67;;;;;;;21.07;100.00;100866.39;1972006;72;31015;-73
2021/07/27 08:36:37;;;;;;;34.73;32.43;;;;;;;20.75;100.00;100873.03;1972245;72;33511;-73
2021/07/27 08:42:04;;;;;;;33.10;31.05;;;;;;;21.14;100.00;100872.88;1972043;72;30955;-78
2021/07/27 08:47:31;;;;;;;34.50;32.10;;;;;;;20.93;100.00;100874.99;1972158;72;31034;-77
2021/07/27 08:52:59;;;;;;;36.23;33.73;;;;;;;20.71;100.00;100883.38;1971982;73;31009;-72
2021/07/27 08:58:26;;;;;;;36.67;34.07;;;;;;;20.62;100.00;100874.20;1972224;72;31484;-77
2021/07/27 09:03:50;;;;;;;36.17;33.67;;;;;;;20.77;100.00;100874.89;1972152;72;31007;-73
2021/07/27 09:09:17;;;;;;;36.13;33.70;;;;;;;20.64;100.00;100876.89;1972111;73;31461;-73
2021/07/27 09:14:47;;;;;;;36.27;33.40;;;;;;;20.86;100.00;100875.02;1971915;73;30930;-77
2021/07/27 09:23:17;;;;;;;36.97;34.17;;;;;;;20.82;100.00;100877.48;1977003;72;30696;-73
2021/07/27 09:25:49;;;;;;;37.33;34.43;;;;;;;20.74;100.00;100884.08;1951662;73;24182;-77
2021/07/27 09:28:20;;;;;;;36.47;33.77;;;;;;;20.76;100.00;100883.95;1951636;73;24135;-77
2021/07/27 09:30:52;;;;;;;36.97;34.17;;;;;;;20.54;100.00;100878.76;1951711;73;24144;-73
2021/07/27 09:33:31;;;;;;;36.87;34.20;;;;;;;20.73;100.00;100890.31;1951350;73;24137;-77
2021/07/27 09:36:02;;;;;;;37.93;35.10;;;;;;;20.79;100.00;100885.27;1951723;73;24125;-78
2021/07/27 09:38:33;;;;;;;36.00;33.30;;;;;;;20.60;100.00;100884.42;1951636;73;26633;-73
2021/07/27 09:41:08;;;;;;;36.70;34.10;;;;;;;20.95;100.00;100879.12;1951817;73;24161;-77
2021/07/27 09:43:39;;;;;;;36.47;33.90;;;;;;;20.89;100.00;100880.53;1951773;73;24137;-78
2021/07/27 09:46:12;;;;;;;37.73;35.03;;;;;;;20.78;100.00;100889.25;1951798;73;24128;-73
2021/07/27 09:48:43;;;;;;;37.70;35.00;;;;;;;20.77;100.00;100878.55;1951676;73;24608;-73
2021/07/27 09:51:13;;;;;;;36.53;33.93;;;;;;;20.87;100.00;100880.91;1951603;73;24156;-74
2021/07/27 09:53:45;;;;;;;36.57;34.07;;;;;;;21.10;100.00;100880.38;1951679;73;24136;-77
2021/07/27 09:56:16;;;;;;;36.65;33.85;;;;;;;21.04;100.00;100879.83;1951678;73;24197;-73
2021/07/27 09:58:46;;;;;;;37.17;34.53;;;;;;;21.13;100.00;100883.96;1951745;73;24231;-74
2021/07/27 10:01:21;;;;;;;37.30;34.57;;;;;;;20.90;100.00;100887.24;1951679;73;24261;-73
2021/07/27 10:03:55;;;;;;;37.33;34.73;;;;;;;21.03;100.00;100888.64;1951661;73;24235;-77
2021/07/27 10:06:28;;;;;;;36.60;34.10;;;;;;;21.23;100.00;100872.16;1951603;73;24145;-78
2021/07/27 10:09:01;;;;;;;36.13;33.73;;;;;;;21.29;100.00;100877.80;1951581;73;26668;-74
2021/07/27 10:11:42;;;;;;;36.63;34.13;;;;;;;21.46;100.00;100872.45;1951861;73;24712;-75
2021/07/27 10:14:15;;;;;;;35.88;33.67;;;;;;;21.74;100.00;100866.21;1951622;73;24669;-74
2021/07/27 10:16:46;;;;;;;35.63;33.33;;;;;;;21.89;100.00;100860.38;1951669;73;24218;-73
2021/07/27 10:19:19;;;;;;;35.75;33.42;;;;;;;22.08;100.00;100859.94;1951696;73;24298;-79
2021/07/27 10:21:51;;;;;;;34.65;32.55;;;;;;;22.35;100.00;100852.58;1927567;73;24217;-74
2021/07/27 10:24:23;;;;;;;35.50;33.20;;;;;;;21.89;100.00;100864.63;1903555;75;24142;-74
2021/07/27 10:26:53;;;;;;;36.77;34.37;;;;;;;22.12;100.00;100864.30;1917874;75;24146;-73
2021/07/27 10:29:31;;;;;;;40.67;38.23;;;;;;;22.17;100.00;100859.18;1905573;75;24167;-73
2021/07/27 10:32:13;;;;;;;35.52;33.08;;;;;;;22.36;100.00;100860.48;1917781;75;24150;-78
2021/07/27 10:37:39;;;;;;;35.78;33.55;;;;;;;22.03;100.00;100853.75;1972242;72;31083;-78
2021/07/27 10:43:07;;;;;;;34.85;32.65;;;;;;;22.30;100.00;100854.27;1971985;72;30971;-73
2021/07/27 10:48:35;;;;;;;35.05;32.95;;;;;;;22.23;100.00;100849.84;1972149;73;31007;-78
2021/07/27 10:54:02;;;;;;;33.75;31.82;;;;;;;22.21;100.00;100843.70;1972047;72;31002;-73
2021/07/27 10:59:31;;;;;;;34.92;32.73;;;;;;;22.22;100.00;100836.28;1972192;72;31597;-77
2021/07/27 11:04:59;;;;;;;35.35;33.15;;;;;;;22.43;100.00;100838.84;1972062;73;31430;-79
2021/07/27 11:10:29;;;;;;;33.15;31.25;;;;;;;22.73;100.00;100829.30;1972213;72;31030;-79
2021/07/27 11:16:00;;;;;;;34.08;32.00;;;;;;;22.79;100.00;100817.09;1971918;72;30952;-79
2021/07/27 11:21:23;;;;;;;32.48;30.57;;;;;;;22.74;100.00;100827.29;1972068;73;31487;-77
2021/07/27 11:26:52;;;;;;;35.15;32.98;;;;;;;22.80;100.00;100821.58;1971963;72;30997;-79
2021/07/27 11:32:17;;;;;;;34.00;31.93;;;;;;;22.54;100.00;100820.13;1972099;73;31408;-77
2021/07/27 11:37:44;;;;;;;34.70;32.50;;;;;;;22.62;100.00;100816.87;1971928;73;30951;-78
2021/07/27 11:43:31;;;;;;;37.17;34.73;;;;;;;22.00;100.00;100819.09;1972142;72;31568;-73
2021/07/27 11:49:01;;;;;;;38.53;35.92;;;;;;;21.93;100.00;100818.32;1971953;72;31035;-77
2021/07/27 11:54:26;;;;;;;38.57;35.87;;;;;;;21.67;100.00;100820.19;1972176;72;31434;-80
2021/07/27 11:59:51;;;;;;;38.17;35.77;;;;;;;21.60;100.00;100815.77;1971918;73;30941;-72
2021/07/27 12:05:16;;;;;;;37.05;34.38;;;;;;;22.11;100.00;100821.05;1971960;72;30992;-81
2021/07/27 12:10:46;;;;;;;38.67;35.92;;;;;;;22.00;100.00;100800.12;1972005;72;30929;-80
2021/07/27 12:16:32;;;;;;;39.18;36.48;;;;;;;21.71;100.00;100811.22;1926866;73;31141;-79
2021/07/27 12:22:16;;;;;;;38.70;36.10;;;;;;;21.19;100.00;100814.13;1933129;73;30972;-79
2021/07/27 12:27:42;;;;;;;40.83;37.83;;;;;;;20.96;100.00;100786.17;1972283;72;31041;-78
2021/07/27 12:33:10;;;;;;;45.52;42.03;;;;;;;20.71;100.00;100802.31;1971944;72;31090;-81
2021/07/27 12:38:35;;;;;;;43.20;39.80;;;;;;;20.57;100.00;100806.11;1972271;72;31581;-73
2021/07/27 12:44:22;;;;;;;51.13;46.92;;;;;;;20.41;100.00;100806.56;1933975;73;31226;-79
2021/07/27 12:50:08;;;;;;;50.80;46.63;;;;;;;20.07;100.00;100801.36;1947926;74;31021;-79
2021/07/27 12:55:35;;;;;;;52.60;48.23;;;;;;;20.10;100.00;100802.05;1972204;72;31432;-77
2021/07/27 13:01:00;;;;;;;49.27;44.90;;;;;;;20.72;100.00;100801.14;1971885;73;31061;-77
2021/07/27 13:06:44;;;;;;;51.65;47.75;;;;;;;20.71;100.00;100797.28;1927937;73;31075;-79
2021/07/27 13:12:10;;;;;;;54.07;50.07;;;;;;;20.96;100.00;100798.05;1971941;73;31115;-78
2021/07/27 13:17:35;;;;;;;50.40;46.50;;;;;;;21.39;100.00;100795.37;1972173;72;31537;-78
2021/07/27 13:23:24;;;;;;;53.55;49.58;;;;;;;21.54;100.00;100788.09;1998665;71;31536;-81
2021/07/27 13:28:48;;;;;;;52.13;48.35;;;;;;;21.98;100.00;100790.36;1972105;72;31546;-77
2021/07/27 13:34:22;;;;;;;54.15;50.25;;;;;;;21.71;100.00;100773.05;1972014;72;31074;-78
2021/07/27 13:39:45;;;;;;;55.38;51.42;;;;;;;21.33;100.00;100784.90;1971413;73;31021;-78
2021/07/27 13:45:10;;;;;;;58.95;54.60;;;;;;;21.38;100.00;100777.34;1972311;72;31478;-77
2021/07/27 13:50:35;;;;;;;57.80;53.50;;;;;;;21.21;100.00;100770.83;1971968;73;30955;-76
2021/07/27 13:56:00;;;;;;;55.67;51.58;;;;;;;21.14;100.00;100770.59;1972073;73;31075;-76
2021/07/27 14:01:27;;;;;;;58.45;54.05;;;;;;;20.97;100.00;100754.49;1972232;72;30955;-74
2021/07/27 14:06:52;;;;;;;57.60;53.50;;;;;;;21.11;100.00;100748.69;1972081;72;30983;-76
2021/07/27 14:12:17;;;;;;;59.40;55.17;;;;;;;21.04;100.00;100752.73;1971925;72;30948;-73
2021/07/27 14:17:44;;;;;;;59.93;55.57;;;;;;;20.78;100.00;100752.33;1972165;72;31439;-77
2021/07/27 14:23:10;;;;;;;59.20;55.10;;;;;;;20.18;100.00;100744.12;1972119;72;30930;-82
2021/07/27 14:28:38;;;;;;;61.40;56.80;;;;;;;19.99;100.00;100748.09;1972173;72;31426;-79
2021/07/27 14:34:06;;;;;;;47.47;43.47;;;;;;;20.12;100.00;100734.83;1972242;72;31489;-76
2021/07/27 14:39:51;;;;;;;54.73;50.63;;;;;;;20.12;100.00;100739.89;1947578;74;31152;-74
2021/07/27 14:45:22;;;;;;;47.15;43.45;;;;;;;20.32;100.00;100740.38;1971994;72;30952;-73
2021/07/27 14:50:46;;;;;;;48.23;44.42;;;;;;;20.79;100.00;100746.30;1972164;73;31564;-81
2021/07/27 14:56:10;;;;;;;52.85;49.05;;;;;;;20.88;100.00;100728.64;1971915;73;30967;-79
2021/07/27 15:01:55;;;;;;;52.80;49.08;;;;;;;20.82;100.00;100726.44;1947902;74;31020;-80
2021/07/27 15:07:22;;;;;;;47.55;44.05;;;;;;;20.98;100.00;100716.61;1971982;73;30962;-83
2021/07/27 15:13:07;;;;;;;44.77;41.47;;;;;;;21.40;100.00;100700.08;1920436;73;31660;-81
2021/07/27 15:18:32;;;;;;;44.00;40.80;;;;;;;21.72;100.00;100701.19;1972110;72;30985;-81
2021/07/27 15:23:57;;;;;;;48.35;44.65;;;;;;;21.71;100.00;100696.71;1972098;72;30980;-82
2021/07/27 15:29:21;;;;;;;39.53;36.63;;;;;;;21.84;100.00;100691.79;1972167;73;31056;-81
2021/07/27 15:34:45;;;;;;;40.23;37.42;;;;;;;22.40;100.00;100679.66;1972018;72;30984;-75
2021/07/27 15:40:12;;;;;;;39.30;36.35;;;;;;;22.66;100.00;100682.69;1972130;73;31458;-76
2021/07/27 15:45:43;;;;;;;37.33;34.78;;;;;;;22.45;100.00;100668.05;1972158;73;30920;-75
2021/07/27 15:51:08;;;;;;;36.95;34.43;;;;;;;22.45;100.00;100660.15;1972092;73;31559;-79
2021/07/27 15:56:33;;;;;;;37.10;34.67;;;;;;;22.58;100.00;100653.17;1971998;72;31113;-75
2021/07/27 16:02:01;;;;;;;34.30;32.10;;;;;;;22.45;100.00;100646.82;1971949;73;31128;-83
2021/07/27 16:07:26;;;;;;;33.70;31.70;;;;;;;22.62;100.00;100646.39;1972266;73;31057;-74
2021/07/27 16:12:57;;;;;;;35.48;33.13;;;;;;;22.34;100.00;100650.58;1972102;72;31108;-82
2021/07/27 16:18:24;;;;;;;37.30;34.58;;;;;;;22.22;100.00;100657.19;1972053;72;30934;-78
2021/07/27 16:23:51;;;;;;;36.42;34.03;;;;;;;22.10;100.00;100660.14;1971949;72;31018;-81
2021/07/27 16:29:17;;;;;;;35.63;33.35;;;;;;;22.07;100.00;100653.81;1972010;73;30925;-74
2021/07/27 16:34:42;;;;;;;38.23;35.92;;;;;;;22.21;100.00;100645.64;1972243;72;30967;-73
2021/07/27 16:40:09;;;;;;;36.77;34.67;;;;;;;22.59;100.00;100638.62;1966813;72;31065;-76
2021/07/27 16:45:53;;;;;;;34.05;32.05;;;;;;;22.39;100.00;100628.48;1948012;74;31506;-71
2021/07/27 16:51:17;;;;;;;35.03;32.83;;;;;;;21.69;100.00;100638.91;1971944;73;30925;-75
2021/07/27 16:57:01;;;;;;;33.88;31.68;;;;;;;21.58;100.00;100644.86;1947586;74;31079;-74
2021/07/27 17:02:26;;;;;;;32.98;30.95;;;;;;;21.77;100.00;100633.66;1972074;72;31001;-79
2021/07/27 17:08:10;;;;;;;34.13;32.03;;;;;;;21.90;100.00;100623.05;1947620;74;30997;-75
2021/07/27 17:13:35;;;;;;;34.38;32.17;;;;;;;21.92;100.00;100634.25;1972195;72;31465;-71
2021/07/27 17:19:00;;;;;;;36.05;33.75;;;;;;;21.65;100.00;100623.86;1972290;72;31478;-70
2021/07/27 17:24:25;;;;;;;35.00;32.50;;;;;;;21.89;100.00;100627.89;1971941;73;30932;-71
2021/07/27 17:29:49;;;;;;;34.15;31.95;;;;;;;22.06;100.00;100628.12;1972015;72;30929;-73
2021/07/27 17:35:19;;;;;;;33.08;31.05;;;;;;;22.14;100.00;100622.84;1972256;73;31435;-74
2021/07/27 17:41:03;;;;;;;34.43;32.33;;;;;;;22.27;100.00;100639.11;1948047;74;31474;-74
2021/07/27 17:46:29;;;;;;;33.55;31.48;;;;;;;22.38;100.00;100625.41;1972303;73;31615;-74
2021/07/27 17:51:53;;;;;;;34.03;31.93;;;;;;;22.02;100.00;100629.45;1972007;73;30910;-76
2021/07/27 17:57:17;;;;;;;34.43;32.28;;;;;;;21.94;100.00;100636.72;1972036;72;30976;-73
2021/07/27 18:02:42;;;;;;;34.50;32.33;;;;;;;21.91;100.00;100635.40;1972140;72;30949;-72
2021/07/27 18:08:08;;;;;;;37.15;34.65;;;;;;;21.18;100.00;100635.12;1972054;72;30939;-74
2021/07/27 18:13:33;;;;;;;37.40;34.88;;;;;;;21.26;100.00;100625.08;1972228;73;31468;-74
2021/07/27 18:18:59;;;;;;;35.90;33.50;;;;;;;21.30;100.00;100644.94;1972028;72;31014;-77
2021/07/27 18:24:23;;;;;;;37.85;35.13;;;;;;;21.10;100.00;100638.30;1972425;72;31569;-73
2021/07/27 18:29:47;;;;;;;36.45;33.75;;;;;;;21.00;100.00;100638.84;1972045;72;31029;-71
2021/07/27 18:35:13;;;;;;;36.75;34.13;;;;;;;20.95;100.00;100641.91;1972244;72;33411;-73
2021/07/27 18:40:38;;;;;;;37.30;34.70;;;;;;;20.72;100.00;100645.06;1972258;72;31045;-75
2021/07/27 18:46:02;;;;;;;39.53;36.53;;;;;;;20.61;100.00;100639.70;1972264;73;30936;-73
2021/07/27 18:51:49;;;;;;;37.77;34.97;;;;;;;20.50;100.00;100645.59;1945351;73;31134;-73
2021/07/27 18:57:13;;;;;;;39.13;36.33;;;;;;;20.56;100.00;100646.41;1972222;72;31506;-76
2021/07/27 19:02:37;;;;;;;41.13;38.23;;;;;;;20.50;100.00;100647.83;1972038;72;31295;-72
2021/07/27 19:08:03;;;;;;;43.10;39.67;;;;;;;20.35;100.00;100652.82;1972190;72;31552;-73
2021/07/27 19:13:27;;;;;;;43.10;39.90;;;;;;;20.36;100.00;100651.06;1972161;72;31022;-72
2021/07/27 19:18:52;;;;;;;41.93;38.73;;;;;;;20.31;100.00;100651.89;1972095;72;31042;-73
2021/07/27 19:24:16;;;;;;;43.13;39.67;;;;;;;20.17;100.00;100652.81;1971970;73;31022;-73
2021/07/27 19:29:40;;;;;;;42.67;39.37;;;;;;;20.05;100.00;100658.47;1972040;72;31057;-72
2021/07/27 19:35:07;;;;;;;44.43;41.10;;;;;;;20.04;100.00;100656.23;1972122;73;31520;-80
2021/07/27 19:40:32;;;;;;;43.30;39.90;;;;;;;20.07;100.00;100656.12;1972225;72;33503;-75
2021/07/27 19:46:07;;;;;;;43.90;40.70;;;;;;;19.94;100.00;100651.05;1972082;72;31099;-73
2021/07/27 19:51:24;;;;;;;42.80;39.50;;;;;;;19.80;100.00;100660.48;1972041;73;31122;-71
2021/07/27 19:56:49;;;;;;;42.50;39.33;;;;;;;19.79;100.00;100650.37;1972055;72;30961;-72
2021/07/27 20:02:33;;;;;;;42.83;39.43;;;;;;;19.62;100.00;100656.23;1947989;73;31084;-74
2021/07/27 20:07:58;;;;;;;42.47;39.07;;;;;;;19.62;100.00;100658.47;1972230;73;30959;-75
2021/07/27 20:13:23;;;;;;;43.57;40.33;;;;;;;19.58;100.00;100659.52;1972173;73;31607;-73
2021/07/27 20:18:49;;;;;;;42.57;39.17;;;;;;;19.61;100.00;100673.72;1972004;72;30973;-71
2021/07/27 20:24:14;;;;;;;43.47;39.97;;;;;;;19.54;100.00;100676.30;1972158;73;30972;-74
2021/07/27 20:29:39;;;;;;;43.47;39.97;;;;;;;19.57;100.00;100673.36;1971982;72;31039;-73
2021/07/27 20:35:04;;;;;;;42.50;38.93;;;;;;;19.48;100.00;100672.88;1972304;72;31468;-72
2021/07/27 20:40:29;;;;;;;44.37;40.77;;;;;;;19.30;100.00;100679.02;1971959;73;31032;-74
2021/07/27 20:45:53;;;;;;;44.60;40.80;;;;;;;19.29;100.00;100679.62;1972417;72;33440;-79
2021/07/27 20:51:18;;;;;;;44.10;40.30;;;;;;;19.14;100.00;100685.07;1972240;73;31463;-73
2021/07/27 20:56:43;;;;;;;46.97;43.10;;;;;;;19.06;100.00;100687.64;1972230;72;31052;-72
2021/07/27 21:02:08;;;;;;;43.37;39.50;;;;;;;19.03;100.00;100677.08;1971973;72;30972;-72
2021/07/27 21:07:32;;;;;;;43.67;39.77;;;;;;;19.00;100.00;100681.97;1972079;72;31038;-71
2021/07/27 21:12:57;;;;;;;45.83;41.87;;;;;;;18.92;100.00;100683.46;1972218;73;31524;-72
2021/07/27 21:18:21;;;;;;;44.67;40.77;;;;;;;18.91;100.00;100682.62;1972135;72;31070;-71
2021/07/27 21:23:46;;;;;;;44.40;40.33;;;;;;;18.77;100.00;100686.92;1971943;73;30971;-72
2021/07/27 21:29:11;;;;;;;45.37;41.43;;;;;;;19.05;100.00;100684.58;1972325;72;31059;-69
2021/07/27 21:34:35;;;;;;;45.60;41.63;;;;;;;19.07;100.00;100681.42;1972111;72;31087;-73
2021/07/27 21:40:08;;;;;;;45.57;41.60;;;;;;;19.08;100.00;100680.27;1972215;72;31450;-70
2021/07/27 21:45:54;;;;;;;45.67;41.80;;;;;;;19.10;100.00;100677.91;1947750;74;31099;-72
2021/07/27 21:51:40;;;;;;;47.60;43.33;;;;;;;19.10;100.00;100683.53;1914785;73;31044;-71
2021/07/27 21:57:05;;;;;;;50.23;45.80;;;;;;;18.92;100.00;100683.46;1972114;72;31024;-73
2021/07/27 22:02:49;;;;;;;50.63;46.27;;;;;;;18.96;100.00;100686.64;1947991;74;31029;-75
2021/07/27 22:08:15;;;;;;;51.13;46.50;;;;;;;18.96;100.00;100678.78;1971982;72;31076;-73
2021/07/27 22:13:46;;;;;;;49.13;44.67;;;;;;;18.77;100.00;100675.08;1972195;73;31029;-74
2021/07/27 22:19:30;;;;;;;47.00;42.60;;;;;;;18.88;100.00;100672.66;1932930;73;31039;-73
2021/07/27 22:24:55;;;;;;;47.80;43.43;;;;;;;18.91;100.00;100678.41;1971981;73;30984;-72
2021/07/27 22:30:19;;;;;;;48.37;44.20;;;;;;;18.88;100.00;100683.91;1972100;72;31040;-71
2021/07/27 22:35:46;;;;;;;49.43;45.10;;;;;;;18.86;100.00;100682.04;1972227;73;33392;-72
2021/07/27 22:41:19;;;;;;;49.00;44.40;;;;;;;18.78;100.00;100676.73;1972030;72;30965;-72
2021/07/27 22:46:43;;;;;;;48.37;44.03;;;;;;;18.65;100.00;100683.47;1972228;73;31442;-70
2021/07/27 22:52:08;;;;;;;49.30;44.90;;;;;;;18.69;100.00;100685.00;1972029;72;30973;-71
2021/07/27 22:57:36;;;;;;;46.50;42.30;;;;;;;18.63;100.00;100681.56;1972033;72;30963;-71
2021/07/27 23:03:06;;;;;;;47.83;43.63;;;;;;;18.62;100.00;100677.09;1972211;72;31013;-70
2021/07/27 23:08:30;;;;;;;48.43;43.60;;;;;;;18.64;100.00;100674.78;1972210;73;30988;-73
2021/07/27 23:13:58;;;;;;;47.67;43.30;;;;;;;18.61;100.00;100674.07;1971950;72;30949;-73
2021/07/27 23:19:23;;;;;;;49.37;45.00;;;;;;;18.49;100.00;100672.53;1971998;72;30956;-71
2021/07/27 23:24:58;;;;;;;52.23;47.30;;;;;;;18.47;100.00;100676.30;1972214;73;30971;-71
2021/07/27 23:30:16;;;;;;;48.30;44.20;;;;;;;18.43;100.00;100671.11;1971994;72;31018;-70
2021/07/27 23:35:40;;;;;;;50.17;45.57;;;;;;;18.50;100.00;100660.95;1972128;72;31017;-71
2021/07/27 23:41:05;;;;;;;50.17;45.80;;;;;;;18.32;100.00;100660.84;1972195;72;31566;-73